Time;durP1;ratioP1;P1;durP2;ratioP2;P2;SDS_P1;SDS_P2;PMS_P1;PMS_P2;Temp;Humidity;BMP_temperature;BMP_pressure;BME280_temperature;BME280_humidity;BME280_pressure;Samples;Min_cycle;Max_cycle;Signal;HPM_P1;HPM_P2
2023/01/14 00:01:46;;;;;;;;;;;;;;;25.89;27.51;101309.88;5074526;28;1140;-19
2023/01/14 00:04:12;;;;;;;;;;;;;;;25.40;28.01;101312.09;5075733;28;1894;-19
2023/01/14 00:06:37;;;;;;;;;;;;;;;25.95;27.53;101309.22;5075135;28;1087;-19
2023/01/14 00:09:04;;;;;;;;;;;;;;;26.57;26.40;101309.09;5075361;28;1031;-19
2023/01/14 00:11:50;;;;;;;;;;;;;;;25.57;27.65;101306.81;5056597;28;1066;-19
2023/01/14 00:14:16;;;;;;;;;;;;;;;25.22;28.52;101312.13;5069747;28;1581;-19
2023/01/14 00:16:41;;;;;;;;;;;;;;;25.65;27.85;101314.97;5075620;28;1460;-19
2023/01/14 00:19:06;;;;;;;;;;;;;;;26.01;27.38;101316.66;5075799;28;1127;-19
2023/01/14 00:21:32;;;;;;;;;;;;;;;26.56;26.76;101321.75;5075430;28;1059;-19
2023/01/14 00:23:57;;;;;;;;;;;;;;;25.78;27.31;101311.84;5059374;28;926;-19
2023/01/14 00:26:22;;;;;;;;;;;;;;;25.24;28.59;101317.34;5075409;28;1968;-19
2023/01/14 00:28:48;;;;;;;;;;;;;;;25.85;27.59;101313.88;5075302;28;1063;-19
2023/01/14 00:31:14;;;;;;;;;;;;;;;25.80;27.56;101319.75;5075932;28;1094;-19
2023/01/14 00:33:40;;;;;;;;;;;;;;;26.32;26.93;101317.09;5079455;28;1079;-19
2023/01/14 00:36:05;;;;;;;;;;;;;;;26.11;27.02;101321.91;5061243;28;1098;-18
2023/01/14 00:38:31;;;;;;;;;;;;;;;25.57;27.97;101309.50;5069837;28;1059;-19
2023/01/14 00:41:15;;;;;;;;;;;;;;;25.66;28.33;101311.25;5065387;28;1135;-18
2023/01/14 00:43:42;;;;;;;;;;;;;;;25.47;28.39;101314.13;5078923;28;1107;-19
2023/01/14 00:46:08;;;;;;;;;;;;;;;26.05;27.69;101317.19;5077998;28;1901;-19
2023/01/14 00:48:34;;;;;;;;;;;;;;;26.47;27.02;101320.91;5043086;28;1009;-19
2023/01/14 00:50:59;;;;;;;;;;;;;;;25.77;27.55;101315.53;5078575;28;1043;-19
2023/01/14 00:53:25;;;;;;;;;;;;;;;25.27;28.19;101307.13;5063139;28;1151;-19
2023/01/14 00:55:50;;;;;;;;;;;;;;;25.66;27.69;101305.88;5067796;28;1012;-19
2023/01/14 00:58:15;;;;;;;;;;;;;;;25.85;27.50;101303.94;5077935;28;1030;-19
2023/01/14 01:00:40;;;;;;;;;;;;;;;26.17;27.27;101302.38;5059199;28;1139;-19
2023/01/14 01:03:06;;;;;;;;;;;;;;;25.91;27.19;101300.59;5074030;28;1059;-19
2023/01/14 01:05:37;;;;;;;;;;;;;;;25.46;28.05;101294.44;5078760;28;1910;-19
2023/01/14 01:08:03;;;;;;;;;;;;;;;25.79;27.72;101297.34;5078375;28;1439;-19
2023/01/14 01:10:28;;;;;;;;;;;;;;;25.75;27.73;101296.00;5076654;28;1043;-19
2023/01/14 01:12:54;;;;;;;;;;;;;;;26.21;27.28;101288.59;5060975;28;1037;-18
2023/01/14 01:15:19;;;;;;;;;;;;;;;26.38;26.57;101286.81;5078078;28;1063;-19
2023/01/14 01:17:44;;;;;;;;;;;;;;;25.63;27.87;101283.78;5078463;28;1233;-19
2023/01/14 01:20:10;;;;;;;;;;;;;;;25.29;28.32;101283.53;5077845;28;1114;-19
2023/01/14 01:22:35;;;;;;;;;;;;;;;25.63;27.62;101275.69;5076267;28;1075;-19
2023/01/14 01:25:00;;;;;;;;;;;;;;;25.94;27.53;101277.88;5058550;28;1898;-19
2023/01/14 01:27:26;;;;;;;;;;;;;;;26.47;26.53;101280.44;5073908;28;1107;-19
2023/01/14 01:29:51;;;;;;;;;;;;;;;25.80;27.52;101272.09;5078327;28;1179;-19
2023/01/14 01:32:16;;;;;;;;;;;;;;;25.83;27.14;101270.06;5078014;28;1104;-19
2023/01/14 01:34:41;;;;;;;;;;;;;;;25.87;27.60;101269.59;5075814;28;1071;-19
2023/01/14 01:37:07;;;;;;;;;;;;;;;25.51;27.99;101262.47;5059525;28;1091;-19
2023/01/14 01:39:32;;;;;;;;;;;;;;;26.24;27.20;101264.00;5067399;28;1143;-19
2023/01/14 01:41:57;;;;;;;;;;;;;;;26.62;26.50;101250.94;5072158;28;1103;-19
2023/01/14 01:44:22;;;;;;;;;;;;;;;25.84;27.40;101261.00;5077999;28;1906;-19
2023/01/14 01:46:48;;;;;;;;;;;;;;;25.28;28.16;101249.56;5075750;28;1114;-18
2023/01/14 01:49:15;;;;;;;;;;;;;;;25.63;27.67;101246.91;5065609;28;949;-18
2023/01/14 01:51:46;;;;;;;;;;;;;;;25.92;27.44;101251.06;5077663;28;1024;-19
2023/01/14 01:54:11;;;;;;;;;;;;;;;26.46;26.68;101246.34;5078069;28;1242;-19
2023/01/14 01:56:36;;;;;;;;;;;;;;;25.87;27.22;101250.75;5059034;28;1107;-19
2023/01/14 01:59:02;;;;;;;;;;;;;;;25.29;28.22;101245.84;5074134;28;1147;-18
2023/01/14 02:01:28;;;;;;;;;;;;;;;25.84;27.62;101245.66;5059407;28;1079;-19
2023/01/14 02:03:53;;;;;;;;;;;;;;;25.88;27.58;101243.47;5077398;28;1071;-19
2023/01/14 02:06:18;;;;;;;;;;;;;;;26.28;27.09;101246.47;5060048;28;1910;-19
2023/01/14 02:08:46;;;;;;;;;;;;;;;26.13;26.89;101240.84;5077505;28;1042;-19
2023/01/14 02:11:17;;;;;;;;;;;;;;;25.53;27.86;101241.63;5054975;28;1245;-19
2023/01/14 02:14:01;;;;;;;;;;;;;;;25.50;28.02;101244.63;5057598;28;1208;-19
2023/01/14 02:16:26;;;;;;;;;;;;;;;25.43;27.94;101238.19;5062980;28;1139;-19
2023/01/14 02:19:15;;;;;;;;;;;;;;;26.25;27.23;101246.78;5077068;28;1063;-18
2023/01/14 02:21:42;;;;;;;;;;;;;;;26.02;27.06;101245.56;5064102;28;1175;-19
2023/01/14 02:24:13;;;;;;;;;;;;;;;25.34;28.10;101244.53;5066013;28;1035;-19
2023/01/14 02:26:41;;;;;;;;;;;;;;;25.57;28.14;101239.44;5066710;28;1164;-18
2023/01/14 02:29:25;;;;;;;;;;;;;;;25.56;27.77;101243.13;5077344;28;1091;-19
2023/01/14 02:31:56;;;;;;;;;;;;;;;26.07;27.34;101241.53;5076632;28;1137;-19
2023/01/14 02:34:25;;;;;;;;;;;;;;;26.59;26.23;101240.47;5076527;28;1059;-18
2023/01/14 02:36:52;;;;;;;;;;;;;;;25.82;27.30;101241.44;5043088;28;949;-19
2023/01/14 02:39:17;;;;;;;;;;;;;;;25.55;27.56;101238.75;5074081;28;1115;-19
2023/01/14 02:44:29;;;;;;;;;;;;;;;25.94;27.59;101240.16;5038874;28;1952;-19
2023/01/14 02:46:58;;;;;;;;;;;;;;;26.37;26.79;101242.81;5058801;28;1083;-18
2023/01/14 02:49:25;;;;;;;;;;;;;;;25.82;27.20;101247.69;5038868;28;961;-19
2023/01/14 02:51:50;;;;;;;;;;;;;;;25.18;28.20;101243.41;5054447;28;958;-19
2023/01/14 02:54:16;;;;;;;;;;;;;;;25.77;27.75;101250.00;5076029;28;1226;-19
2023/01/14 02:56:42;;;;;;;;;;;;;;;25.86;27.57;101254.41;5076141;28;1203;-19
2023/01/14 02:59:10;;;;;;;;;;;;;;;26.24;26.92;101256.72;5058869;28;1139;-19
2023/01/14 03:01:48;;;;;;;;;;;;;;;25.85;27.07;101257.28;5072680;28;1020;-18
2023/01/14 03:04:30;;;;;;;;;;;;;;;25.48;27.57;101249.34;5058402;28;1106;-19
2023/01/14 03:06:58;;;;;;;;;;;;;;;25.83;27.34;101260.13;5076695;28;1042;-19
2023/01/14 03:09:30;;;;;;;;;;;;;;;25.75;27.47;101263.66;5076275;28;1194;-18
2023/01/14 03:11:56;;;;;;;;;;;;;;;26.20;27.05;101268.88;5069829;28;1106;-19
2023/01/14 03:14:22;;;;;;;;;;;;;;;26.19;26.53;101269.03;5039497;28;1136;-19
2023/01/14 03:16:58;;;;;;;;;;;;;;;25.48;27.70;101264.63;5076225;28;1106;-19
2023/01/14 03:19:23;;;;;;;;;;;;;;;25.70;27.42;101262.44;5058189;28;1552;-19
2023/01/14 03:21:49;;;;;;;;;;;;;;;25.50;27.56;101260.78;5076417;28;1056;-19
2023/01/14 03:24:16;;;;;;;;;;;;;;;26.07;27.21;101263.09;5049849;28;1047;-19
2023/01/14 03:26:43;;;;;;;;;;;;;;;26.46;26.54;101256.31;5064780;28;1098;-19
2023/01/14 03:29:13;;;;;;;;;;;;;;;25.72;27.41;101258.59;5058499;28;1172;-19
2023/01/14 03:31:40;;;;;;;;;;;;;;;25.39;27.83;101253.00;5058882;28;1156;-19
2023/01/14 03:34:07;;;;;;;;;;;;;;;25.66;27.55;101256.50;5044209;28;1079;-19
2023/01/14 03:36:33;;;;;;;;;;;;;;;25.95;27.46;101257.16;5048320;28;1120;-19
2023/01/14 03:38:59;;;;;;;;;;;;;;;26.15;27.07;101269.38;5067784;28;1152;-19
2023/01/14 03:44:12;;;;;;;;;;;;;;;25.29;28.08;101261.19;5049865;28;1057;-19
2023/01/14 03:46:38;;;;;;;;;;;;;;;25.75;27.73;101270.88;5075361;28;1930;-19
2023/01/14 03:49:03;;;;;;;;;;;;;;;25.34;27.96;101268.78;5044997;28;858;-19
2023/01/14 03:51:32;;;;;;;;;;;;;;;25.98;27.21;101267.59;5051779;28;1056;-19
2023/01/14 03:54:01;;;;;;;;;;;;;;;26.40;26.52;101280.25;5076514;28;1186;-19
2023/01/14 03:56:26;;;;;;;;;;;;;;;25.35;28.34;101271.31;5075425;28;1086;-19
2023/01/14 03:59:02;;;;;;;;;;;;;;;25.30;27.93;101276.31;5076143;28;1226;-18
2023/01/14 04:01:48;;;;;;;;;;;;;;;25.06;28.50;101275.13;5041607;28;1128;-19
2023/01/14 04:04:13;;;;;;;;;;;;;;;25.90;27.36;101277.38;5067592;28;1548;-19
2023/01/14 04:06:38;;;;;;;;;;;;;;;26.27;27.06;101271.75;5058316;28;1959;-19
2023/01/14 04:09:04;;;;;;;;;;;;;;;26.77;26.04;101269.16;5079979;28;1114;-19
2023/01/14 04:11:29;;;;;;;;;;;;;;;27.20;25.61;101274.41;5067875;28;1086;-19
2023/01/14 04:16:38;;;;;;;;;;;;;;;25.79;27.60;101281.16;5066984;28;1027;-19
2023/01/14 04:19:04;;;;;;;;;;;;;;;26.01;27.44;101273.50;5066853;28;1211;-19
2023/01/14 04:21:29;;;;;;;;;;;;;;;26.25;26.81;101281.84;5078335;28;1190;-20
2023/01/14 04:23:54;;;;;;;;;;;;;;;26.37;26.77;101280.59;5071828;28;1055;-19
2023/01/14 04:26:19;;;;;;;;;;;;;;;26.39;26.67;101281.25;5059539;28;1914;-18
2023/01/14 04:28:45;;;;;;;;;;;;;;;26.42;26.73;101274.69;5078668;28;1207;-18
2023/01/14 04:31:10;;;;;;;;;;;;;;;26.51;26.42;101279.06;5078637;28;1007;-18
2023/01/14 04:33:35;;;;;;;;;;;;;;;26.63;25.95;101285.00;5060110;28;977;-18
2023/01/14 04:36:00;;;;;;;;;;;;;;;26.70;25.67;101282.47;5076705;28;1052;-18
2023/01/14 04:38:26;;;;;;;;;;;;;;;27.64;22.64;101283.09;5058634;28;1001;-19
2023/01/14 04:40:51;;;;;;;;;;;;;;;30.03;18.33;101287.88;5064580;28;1043;-19
2023/01/14 04:43:17;;;;;;;;;;;;;;;30.16;17.95;101287.19;5079076;28;1067;-19
2023/01/14 04:45:42;;;;;;;;;;;;;;;29.14;19.94;101292.25;5078528;28;1926;-19
2023/01/14 04:48:07;;;;;;;;;;;;;;;28.83;20.70;101291.28;5067062;28;2515;-19
2023/01/14 04:50:37;;;;;;;;;;;;;;;28.75;21.02;101297.59;5077520;28;1163;-19
2023/01/14 04:53:06;;;;;;;;;;;;;;;28.83;21.28;101283.16;5078273;28;1015;-19
2023/01/14 04:55:31;;;;;;;;;;;;;;;28.85;21.10;101291.94;5079066;28;1127;-19
2023/01/14 04:57:56;;;;;;;;;;;;;;;29.04;21.19;101297.91;5060112;28;1162;-19
2023/01/14 05:00:22;;;;;;;;;;;;;;;29.06;21.15;101293.16;5075547;28;1132;-19
2023/01/14 05:02:47;;;;;;;;;;;;;;;29.38;21.05;101302.00;5062000;28;1279;-20
2023/01/14 05:05:12;;;;;;;;;;;;;;;29.15;21.71;101289.34;5059940;28;1901;-20
2023/01/14 05:07:38;;;;;;;;;;;;;;;29.33;21.27;101294.41;5071600;28;1051;-22
2023/01/14 05:11:22;;;;;;;;;;;;;;;29.04;21.28;101287.09;5082375;28;1904;-29
2023/01/14 05:13:47;;;;;;;;;;;;;;;28.89;20.86;101282.44;5072825;28;1054;-25
2023/01/14 05:16:16;;;;;;;;;;;;;;;28.48;19.96;101294.41;5072993;28;1096;-27
2023/01/14 05:18:41;;;;;;;;;;;;;;;28.33;19.62;101294.31;5061465;28;2333;-27
2023/01/14 05:21:06;;;;;;;;;;;;;;;28.42;18.89;101290.56;5072409;28;1288;-29
2023/01/14 05:23:32;;;;;;;;;;;;;;;28.62;18.30;101291.94;5071407;28;931;-30
2023/01/14 05:25:57;;;;;;;;;;;;;;;28.69;17.85;101293.78;5073123;28;835;-25
2023/01/14 05:28:22;;;;;;;;;;;;;;;29.14;17.91;101289.53;5069917;28;1456;-26
2023/01/14 05:30:48;;;;;;;;;;;;;;;29.02;18.17;101292.69;5072284;28;1961;-33
2023/01/14 05:33:13;;;;;;;;;;;;;;;28.73;18.60;101296.94;5070203;28;890;-27
2023/01/14 05:35:38;;;;;;;;;;;;;;;28.85;18.59;101298.22;5060529;28;1167;-21
2023/01/14 05:38:04;;;;;;;;;;;;;;;28.88;18.16;101294.28;5072651;28;855;-21
2023/01/14 05:40:29;;;;;;;;;;;;;;;28.98;18.08;101291.34;5072468;28;1131;-21
2023/01/14 05:45:41;;;;;;;;;;;;;;;28.82;18.19;101285.03;5069550;28;1087;-21
2023/01/14 05:48:09;;;;;;;;;;;;;;;28.88;18.04;101291.56;5060959;28;2486;-21
2023/01/14 05:50:35;;;;;;;;;;;;;;;28.92;17.96;101292.91;5065378;28;1961;-20
2023/01/14 05:53:00;;;;;;;;;;;;;;;28.99;17.86;101297.63;5064858;28;1254;-21
2023/01/14 05:55:25;;;;;;;;;;;;;;;28.98;18.09;101285.94;5067433;28;1122;-20
2023/01/14 05:57:51;;;;;;;;;;;;;;;29.00;17.76;101286.59;5072156;28;1236;-21
2023/01/14 06:08:27;;;;;;;;;;;;;;;28.92;18.34;101290.22;5071641;28;1010;-18
2023/01/14 06:10:53;;;;;;;;;;;;;;;29.04;18.33;101292.50;5086234;28;1976;-18
2023/01/14 06:13:21;;;;;;;;;;;;;;;29.06;18.25;101290.47;5086164;28;1448;-21
2023/01/14 06:15:46;;;;;;;;;;;;;;;28.99;18.40;101294.91;5081303;28;1251;-21
2023/01/14 06:18:15;;;;;;;;;;;;;;;29.04;18.44;101292.50;5088409;28;2316;-21
2023/01/14 06:20:42;;;;;;;;;;;;;;;28.93;18.23;101293.72;5071054;28;1279;-21
2023/01/14 06:23:07;;;;;;;;;;;;;;;29.04;18.32;101293.34;5078177;28;1133;-21
2023/01/14 06:25:33;;;;;;;;;;;;;;;29.17;18.39;101294.59;5078098;28;901;-21
2023/01/14 06:27:59;;;;;;;;;;;;;;;28.90;18.61;101297.66;5078595;28;1079;-21
2023/01/14 06:30:24;;;;;;;;;;;;;;;29.02;18.33;101298.09;5078534;28;1910;-21
2023/01/14 06:32:50;;;;;;;;;;;;;;;29.02;18.30;101300.81;5078270;28;1119;-21
2023/01/14 06:35:15;;;;;;;;;;;;;;;28.90;18.58;101304.94;5078246;28;1258;-21
2023/01/14 06:37:44;;;;;;;;;;;;;;;29.07;18.29;101300.25;5072541;28;1505;-21
2023/01/14 06:40:09;;;;;;;;;;;;;;;29.06;18.48;101299.41;5078399;28;937;-20
2023/01/14 06:42:34;;;;;;;;;;;;;;;29.11;18.20;101289.91;5078178;28;1032;-20
2023/01/14 06:45:00;;;;;;;;;;;;;;;29.01;18.43;101298.28;5077224;28;1227;-21
2023/01/14 06:47:25;;;;;;;;;;;;;;;29.17;18.30;101287.31;5075386;28;1818;-21
2023/01/14 06:49:50;;;;;;;;;;;;;;;29.04;18.38;101284.38;5070162;28;1898;-21
2023/01/14 06:52:15;;;;;;;;;;;;;;;29.20;18.29;101286.94;5076562;28;1208;-20
2023/01/14 06:54:41;;;;;;;;;;;;;;;29.21;18.09;101285.06;5068149;28;993;-21
2023/01/14 06:57:06;;;;;;;;;;;;;;;29.02;18.24;101279.16;5076716;28;1162;-21
2023/01/14 06:59:31;;;;;;;;;;;;;;;29.05;18.59;101283.34;5077755;28;1051;-21
2023/01/14 07:01:57;;;;;;;;;;;;;;;29.19;18.62;101285.25;5076777;28;1293;-21
2023/01/14 07:04:22;;;;;;;;;;;;;;;29.20;18.32;101288.78;5072969;28;1226;-21
2023/01/14 07:06:49;;;;;;;;;;;;;;;29.19;18.35;101289.81;5077568;28;983;-21
2023/01/14 07:09:14;;;;;;;;;;;;;;;29.18;18.29;101294.41;5077356;28;1893;-21
2023/01/14 07:11:41;;;;;;;;;;;;;;;29.33;18.31;101290.84;5078160;28;1020;-18
2023/01/14 07:14:07;;;;;;;;;;;;;;;29.46;18.35;101288.34;5077104;28;1055;-18
2023/01/14 07:16:32;;;;;;;;;;;;;;;29.37;18.37;101294.91;5077496;28;1058;-21
2023/01/14 07:18:57;;;;;;;;;;;;;;;29.36;18.39;101300.50;5062327;28;2547;-20
2023/01/14 07:21:23;;;;;;;;;;;;;;;29.39;18.03;101298.28;5077505;28;1118;-21
2023/01/14 07:23:50;;;;;;;;;;;;;;;29.45;18.04;101302.94;5064548;28;1050;-21
2023/01/14 07:26:16;;;;;;;;;;;;;;;29.47;18.00;101308.19;5076500;28;1314;-20
2023/01/14 07:28:41;;;;;;;;;;;;;;;29.47;18.18;101310.88;5071842;28;921;-20
2023/01/14 07:31:06;;;;;;;;;;;;;;;29.48;18.07;101311.72;5067064;28;1910;-21
2023/01/14 07:33:32;;;;;;;;;;;;;;;29.50;18.01;101310.50;5076200;28;918;-20
2023/01/14 07:35:57;;;;;;;;;;;;;;;29.49;18.19;101311.56;5077235;28;1070;-21
2023/01/14 07:38:22;;;;;;;;;;;;;;;29.57;18.04;101310.59;5068605;28;933;-21
2023/01/14 07:40:48;;;;;;;;;;;;;;;29.46;17.99;101320.88;5075646;28;1036;-21
2023/01/14 07:43:13;;;;;;;;;;;;;;;29.53;17.72;101320.97;5073075;28;1208;-21
2023/01/14 07:45:38;;;;;;;;;;;;;;;29.52;17.92;101316.59;5065651;28;1043;-20
2023/01/14 07:48:04;;;;;;;;;;;;;;;29.58;17.71;101309.56;5064513;28;2336;-20
2023/01/14 07:50:29;;;;;;;;;;;;;;;29.57;17.87;101311.47;5068799;28;1956;-21
2023/01/14 07:52:55;;;;;;;;;;;;;;;29.54;17.90;101319.13;5069183;28;1039;-20
2023/01/14 07:55:21;;;;;;;;;;;;;;;29.45;18.13;101318.34;5073750;28;963;-20
2023/01/14 07:57:46;;;;;;;;;;;;;;;29.43;18.01;101325.81;5076698;28;1052;-20
2023/01/14 08:00:13;;;;;;;;;;;;;;;29.29;17.93;101328.34;5076690;28;1066;-21
2023/01/14 08:02:38;;;;;;;;;;;;;;;29.31;17.91;101328.97;5075487;28;1081;-20
2023/01/14 08:05:03;;;;;;;;;;;;;;;29.19;17.90;101330.47;5076197;28;1230;-20
2023/01/14 08:07:29;;;;;;;;;;;;;;;29.25;17.86;101334.28;5073870;28;1204;-20
2023/01/14 08:09:54;;;;;;;;;;;;;;;29.16;17.90;101323.53;5074004;28;1961;-20
2023/01/14 08:12:19;;;;;;;;;;;;;;;29.14;17.80;101335.59;5067682;28;1210;-20
2023/01/14 08:14:45;;;;;;;;;;;;;;;29.15;17.61;101332.69;5070963;28;1297;-20
2023/01/14 08:17:10;;;;;;;;;;;;;;;29.04;17.58;101335.84;5074336;28;1780;-20
2023/01/14 08:19:35;;;;;;;;;;;;;;;29.25;17.42;101337.00;5075114;28;1342;-20
2023/01/14 08:22:00;;;;;;;;;;;;;;;29.13;17.45;101332.03;5072372;28;1005;-20
2023/01/14 08:24:26;;;;;;;;;;;;;;;29.20;17.24;101335.69;5076175;28;1090;-20
2023/01/14 08:26:51;;;;;;;;;;;;;;;29.16;17.06;101334.38;5075816;28;1456;-20
2023/01/14 08:29:17;;;;;;;;;;;;;;;29.01;17.41;101339.75;5076242;28;1906;-21
2023/01/14 08:31:43;;;;;;;;;;;;;;;29.16;17.39;101342.50;5076042;28;1047;-20
2023/01/14 08:34:08;;;;;;;;;;;;;;;29.11;17.41;101336.81;5066066;28;1027;-20
2023/01/14 08:36:34;;;;;;;;;;;;;;;29.15;17.80;101337.25;5075138;28;1084;-20
2023/01/14 08:38:59;;;;;;;;;;;;;;;29.39;17.83;101340.78;5069420;28;1105;-20
2023/01/14 08:41:24;;;;;;;;;;;;;;;29.53;18.15;101337.25;5075314;28;1140;-20
2023/01/14 08:43:50;;;;;;;;;;;;;;;29.21;18.64;101337.38;5069481;28;1226;-21
2023/01/14 08:46:15;;;;;;;;;;;;;;;28.91;19.39;101341.84;5074453;28;1215;-20
2023/01/14 08:48:40;;;;;;;;;;;;;;;28.73;19.46;101340.25;5064142;28;2574;-20
2023/01/14 08:51:06;;;;;;;;;;;;;;;28.67;19.87;101339.13;5075663;28;1979;-20
2023/01/14 08:53:32;;;;;;;;;;;;;;;28.66;20.01;101328.47;5058167;28;1630;-20
2023/01/14 08:55:58;;;;;;;;;;;;;;;28.69;19.89;101336.25;5076029;28;1095;-21
2023/01/14 08:58:23;;;;;;;;;;;;;;;28.52;20.06;101330.94;5076154;28;1162;-21
2023/01/14 09:00:49;;;;;;;;;;;;;;;28.55;20.17;101335.13;5075364;28;1529;-21
2023/01/14 09:03:14;;;;;;;;;;;;;;;28.47;20.04;101336.88;5075218;28;862;-21
2023/01/14 09:05:39;;;;;;;;;;;;;;;28.53;20.19;101321.78;5075575;28;1324;-21
2023/01/14 09:19:00;;;;;;;;;;;;;;;28.64;20.40;101314.28;5058399;28;2248;-20
2023/01/14 09:21:25;;;;;;;;;;;;;;;28.66;20.56;101304.13;5073378;28;1470;-20
2023/01/14 09:23:51;;;;;;;;;;;;;;;28.60;20.62;101306.53;5065646;28;1238;-21
2023/01/14 09:26:17;;;;;;;;;;;;;;;28.58;20.62;101294.16;5064887;28;1060;-20
2023/01/14 09:28:42;;;;;;;;;;;;;;;28.63;20.73;101296.38;5072200;28;1231;-20
2023/01/14 09:31:08;;;;;;;;;;;;;;;28.67;20.62;101290.41;5075302;28;1977;-20
2023/01/14 09:33:33;;;;;;;;;;;;;;;28.75;20.59;101296.75;5075422;28;1068;-21
2023/01/14 09:36:02;;;;;;;;;;;;;;;28.73;20.78;101296.94;5075223;28;1075;-20
2023/01/14 09:38:28;;;;;;;;;;;;;;;28.66;20.63;101296.00;5073136;28;1086;-20
2023/01/14 09:40:53;;;;;;;;;;;;;;;28.63;20.64;101294.47;5075252;28;1120;-20
2023/01/14 09:43:19;;;;;;;;;;;;;;;28.58;20.92;101297.72;5075365;28;1004;-20
2023/01/14 09:45:44;;;;;;;;;;;;;;;28.46;20.84;101296.47;5075596;28;1048;-20
2023/01/14 09:48:13;;;;;;;;;;;;;;;28.42;21.07;101289.72;5075470;28;2341;-20
2023/01/14 09:50:45;;;;;;;;;;;;;;;28.39;21.17;101287.38;5075071;28;1957;-20
2023/01/14 09:53:10;;;;;;;;;;;;;;;28.34;21.44;101296.03;5070483;28;1591;-20
2023/01/14 09:55:38;;;;;;;;;;;;;;;28.20;21.30;101265.13;5069535;28;1052;-20
2023/01/14 09:58:24;;;;;;;;;;;;;;;28.55;20.98;101278.28;5073777;28;1051;-20
2023/01/14 10:00:56;;;;;;;;;;;;;;;28.63;21.28;101277.41;5059901;28;1605;-20
2023/01/14 10:03:34;;;;;;;;;;;;;;;28.75;21.18;101275.09;5059512;28;1089;-20
2023/01/14 10:06:01;;;;;;;;;;;;;;;28.78;21.02;101269.34;5078706;28;1003;-20
2023/01/14 10:08:27;;;;;;;;;;;;;;;28.87;20.93;101265.53;5060724;28;1064;-20
2023/01/14 10:10:52;;;;;;;;;;;;;;;28.75;21.19;101256.16;5057345;28;1957;-20
2023/01/14 10:13:32;;;;;;;;;;;;;;;28.81;20.89;101261.69;5070269;28;1208;-20
2023/01/14 10:16:09;;;;;;;;;;;;;;;28.80;20.93;101259.16;5053035;28;1477;-19
2023/01/14 10:18:36;;;;;;;;;;;;;;;28.83;21.08;101256.94;5046256;28;2383;-19
2023/01/14 10:21:05;;;;;;;;;;;;;;;28.79;21.18;101258.34;5061082;28;1076;-19
2023/01/14 10:23:39;;;;;;;;;;;;;;;28.65;21.08;101257.25;5060422;28;993;-20
2023/01/14 10:26:09;;;;;;;;;;;;;;;28.60;21.45;101259.66;5061368;28;1139;-20
2023/01/14 10:28:34;;;;;;;;;;;;;;;28.53;21.50;101254.13;5060468;28;1103;-20
2023/01/14 10:31:00;;;;;;;;;;;;;;;28.50;21.48;101256.34;5078656;28;1909;-20
2023/01/14 10:33:25;;;;;;;;;;;;;;;28.60;21.23;101244.25;5060643;28;969;-20
2023/01/14 10:35:57;;;;;;;;;;;;;;;28.63;21.44;101239.53;5078471;28;1143;-20
2023/01/14 10:38:23;;;;;;;;;;;;;;;28.40;21.51;101248.47;5078017;28;1192;-19
2023/01/14 10:40:48;;;;;;;;;;;;;;;28.48;21.28;101235.72;5078157;28;1163;-20
2023/01/14 10:43:23;;;;;;;;;;;;;;;28.70;21.11;101235.91;5060078;28;1068;-20
2023/01/14 10:45:49;;;;;;;;;;;;;;;28.62;21.46;101235.97;5060536;28;1190;-20
2023/01/14 10:48:16;;;;;;;;;;;;;;;28.49;21.34;101236.56;5065923;28;1795;-21
2023/01/14 10:50:43;;;;;;;;;;;;;;;28.55;21.05;101229.56;5060650;28;1914;-21
2023/01/14 10:53:16;;;;;;;;;;;;;;;28.34;21.42;101233.81;5077971;28;869;-21
2023/01/14 10:55:57;;;;;;;;;;;;;;;28.40;21.41;101224.09;5065709;28;1032;-20
2023/01/14 10:58:26;;;;;;;;;;;;;;;28.42;21.27;101224.78;5077926;28;988;-20
2023/01/14 11:00:53;;;;;;;;;;;;;;;28.41;21.27;101218.50;5077768;28;1028;-22
2023/01/14 11:03:22;;;;;;;;;;;;;;;28.22;21.46;101223.38;5059467;28;1170;-20
2023/01/14 11:05:52;;;;;;;;;;;;;;;28.23;21.62;101225.03;5060238;28;1023;-20
2023/01/14 11:08:22;;;;;;;;;;;;;;;28.34;21.44;101212.16;5059546;28;1075;-20
2023/01/14 11:10:55;;;;;;;;;;;;;;;28.32;21.52;101215.00;5046657;28;1910;-21
2023/01/14 11:13:26;;;;;;;;;;;;;;;28.30;21.51;101221.59;5057528;28;1035;-21
2023/01/14 11:15:51;;;;;;;;;;;;;;;28.34;21.22;101215.69;5049652;28;1163;-21
2023/01/14 11:18:26;;;;;;;;;;;;;;;28.30;21.55;101218.91;5050771;28;1806;-21
2023/01/14 11:20:52;;;;;;;;;;;;;;;28.36;21.29;101215.53;5054495;28;1151;-21
2023/01/14 11:23:23;;;;;;;;;;;;;;;28.25;21.65;101219.44;5033798;28;1068;-20
2023/01/14 11:25:48;;;;;;;;;;;;;;;28.35;21.19;101216.53;5052738;28;1119;-20
2023/01/14 11:28:14;;;;;;;;;;;;;;;28.31;21.55;101216.00;5057391;28;1028;-21
2023/01/14 11:30:39;;;;;;;;;;;;;;;28.22;21.43;101220.66;5039155;28;1914;-21
2023/01/14 11:33:04;;;;;;;;;;;;;;;28.27;21.59;101214.72;5034756;28;1506;-20
2023/01/14 11:35:30;;;;;;;;;;;;;;;28.17;21.44;101220.34;5038865;28;1593;-21
2023/01/14 11:37:56;;;;;;;;;;;;;;;28.13;21.76;101213.59;5057368;28;962;-20
2023/01/14 11:40:21;;;;;;;;;;;;;;;28.24;21.28;101217.78;5056764;28;1158;-20
2023/01/14 11:42:47;;;;;;;;;;;;;;;28.19;21.24;101222.88;5048291;28;1518;-21
2023/01/14 11:45:12;;;;;;;;;;;;;;;28.15;21.37;101222.38;5057259;28;1072;-20
2023/01/14 11:47:46;;;;;;;;;;;;;;;28.15;21.65;101221.53;5056691;28;2303;-21
2023/01/14 11:50:14;;;;;;;;;;;;;;;28.19;21.32;101229.13;5051154;28;1902;-20
2023/01/14 11:52:40;;;;;;;;;;;;;;;28.13;21.61;101226.31;5056220;28;844;-20
2023/01/14 11:55:11;;;;;;;;;;;;;;;28.18;21.27;101226.59;5038806;28;1060;-20
2023/01/14 11:57:36;;;;;;;;;;;;;;;28.22;21.20;101222.50;5039199;28;935;-20
2023/01/14 12:00:01;;;;;;;;;;;;;;;28.15;21.66;101229.66;5056417;28;991;-20
2023/01/14 12:02:34;;;;;;;;;;;;;;;28.16;21.35;101226.75;5056623;28;996;-21
2023/01/14 12:05:06;;;;;;;;;;;;;;;28.04;21.82;101229.06;5056625;28;1055;-21
2023/01/14 12:07:35;;;;;;;;;;;;;;;28.18;21.56;101226.59;5038818;28;985;-20
2023/01/14 12:10:03;;;;;;;;;;;;;;;28.07;21.56;101226.00;5063036;28;1959;-20
2023/01/14 12:16:48;;;;;;;;;;;;;;;28.20;21.35;101229.97;5058263;28;1055;-20
2023/01/14 12:18:02;;;;;;;;;;;;;;;28.24;21.66;101228.59;5053866;28;2458;-21
2023/01/14 12:20:27;;;;;;;;;;;;;;;28.18;21.73;101232.00;5076273;28;1099;-20
2023/01/14 12:23:13;;;;;;;;;;;;;;;28.15;21.61;101229.66;5058585;28;1163;-20
2023/01/14 12:25:40;;;;;;;;;;;;;;;28.25;21.67;101230.28;5075422;28;1376;-20
2023/01/14 12:28:05;;;;;;;;;;;;;;;28.22;21.66;101233.34;5076267;28;1016;-20
2023/01/14 12:30:49;;;;;;;;;;;;;;;28.21;21.47;101237.91;5075751;28;1962;-20
2023/01/14 12:33:14;;;;;;;;;;;;;;;28.24;21.80;101232.13;5076469;28;1087;-20
2023/01/14 12:35:58;;;;;;;;;;;;;;;28.15;21.68;101235.91;5076225;28;1135;-20
2023/01/14 12:46:51;;;;;;;;;;;;;;;28.17;21.55;101239.28;5054795;28;2423;-20
2023/01/14 12:49:17;;;;;;;;;;;;;;;28.19;21.88;101241.81;5064555;28;2351;-20
2023/01/14 12:51:42;;;;;;;;;;;;;;;28.17;21.73;101242.00;5075918;28;1152;-20
2023/01/14 12:54:09;;;;;;;;;;;;;;;28.20;21.79;101248.91;5056649;28;1092;-20
2023/01/14 12:56:48;;;;;;;;;;;;;;;28.21;21.65;101251.41;5052722;28;1138;-21
2023/01/14 12:59:21;;;;;;;;;;;;;;;28.14;22.12;101250.47;5075844;28;1137;-20
2023/01/14 13:01:51;;;;;;;;;;;;;;;28.30;21.67;101245.97;5075957;28;1040;-20
2023/01/14 13:04:27;;;;;;;;;;;;;;;28.27;21.70;101249.03;5057305;28;1099;-20
2023/01/14 13:07:02;;;;;;;;;;;;;;;28.21;21.64;101254.13;5044514;28;1083;-20
2023/01/14 13:09:33;;;;;;;;;;;;;;;28.13;21.66;101248.75;5075648;28;1975;-20
2023/01/14 13:11:58;;;;;;;;;;;;;;;27.93;22.00;101251.91;5057776;28;1485;-20
2023/01/14 13:14:33;;;;;;;;;;;;;;;28.19;21.81;101244.53;5075764;28;964;-20
2023/01/14 13:16:59;;;;;;;;;;;;;;;28.20;21.72;101251.59;5072852;28;2451;-20
2023/01/14 13:19:24;;;;;;;;;;;;;;;28.15;21.83;101256.69;5053469;28;1155;-20
2023/01/14 13:22:05;;;;;;;;;;;;;;;28.10;21.91;101262.66;5075587;28;1141;-20
2023/01/14 13:24:37;;;;;;;;;;;;;;;27.94;21.75;101259.03;5057984;28;1092;-20
2023/01/14 13:27:02;;;;;;;;;;;;;;;28.06;21.78;101259.44;5063603;28;1028;-20
2023/01/14 13:29:31;;;;;;;;;;;;;;;28.13;21.92;101261.47;5069756;28;1900;-20
2023/01/14 13:31:56;;;;;;;;;;;;;;;28.13;21.48;101267.69;5059375;28;1140;-20